Time;durP1;ratioP1;P1;durP2;ratioP2;P2;SDS_P1;SDS_P2;PMS_P1;PMS_P2;Temp;Humidity;BMP_temperature;BMP_pressure;BME280_temperature;BME280_humidity;BME280_pressure;Samples;Min_cycle;Max_cycle;Signal;HPM_P1;HPM_P2
2022/11/12 00:00:36;;;;;;;;;;;;;;;;;;4993463;28;1106;-67
2022/11/12 00:03:02;;;;;;;;;;;;;;;;;;4992229;28;1208;-68
2022/11/12 00:05:27;;;;;;;;;;;;;;;;;;4992813;28;1296;-67
2022/11/12 00:07:52;;;;;;;;;;;;;;;;;;5009096;28;1905;-67
2022/11/12 00:10:18;;;;;;;;;;;;;;;;;;5008903;28;1267;-67
2022/11/12 00:12:43;;;;;;;;;;;;;;;;;;5010258;28;1197;-67
2022/11/12 00:15:09;;;;;;;;;;;;;;;;;;5012932;28;873;-67
2022/11/12 00:17:34;;;;;;;;;;;;;;;;;;5013004;28;1315;-67
2022/11/12 00:19:59;;;;;;;;;;;;;;;;;;5013083;28;814;-67
2022/11/12 00:22:24;;;;;;;;;;;;;;;;;;5012587;28;822;-68
2022/11/12 00:24:50;;;;;;;;;;;;;;;;;;5013297;28;940;-68
2022/11/12 00:27:15;;;;;;;;;;;;;;;;;;5047527;28;1898;-69
2022/11/12 00:29:40;;;;;;;;;;;;;;;;;;5036604;28;809;-69
2022/11/12 00:32:06;;;;;;;;;;;;;;;;;;5035939;28;779;-70
2022/11/12 00:34:31;;;;;;;;;;;;;;;;;;5054262;28;835;-69
2022/11/12 00:36:57;;;;;;;;;;;;;;;;;;5035842;28;1327;-69
2022/11/12 00:39:22;;;;;;;;;;;;;;;;;;5039316;28;1509;-69
2022/11/12 00:41:47;;;;;;;;;;;;;;;;;;5087343;28;1121;-69
2022/11/12 00:44:12;;;;;;;;;;;;;;;;;;5017858;28;1184;-69
2022/11/12 00:46:38;;;;;;;;;;;;;;;;;;5019569;28;1280;-69
2022/11/12 00:49:03;;;;;;;;;;;;;;;;;;5035181;28;1950;-69
2022/11/12 00:51:28;;;;;;;;;;;;;;;;;;5054758;28;948;-70
2022/11/12 00:53:54;;;;;;;;;;;;;;;;;;5054330;28;927;-69
2022/11/12 00:56:19;;;;;;;;;;;;;;;;;;5036137;28;1337;-69
2022/11/12 00:58:44;;;;;;;;;;;;;;;;;;5036504;28;809;-69
2022/11/12 01:01:11;;;;;;;;;;;;;;;;;;5036658;28;948;-69
2022/11/12 01:03:36;;;;;;;;;;;;;;;;;;5035596;28;1197;-69
2022/11/12 01:06:10;;;;;;;;;;;;;;;;;;5053035;28;868;-68
2022/11/12 01:08:35;;;;;;;;;;;;;;;;;;5035195;28;1898;-67
2022/11/12 01:11:05;;;;;;;;;;;;;;;;;;5053015;28;810;-68
2022/11/12 01:13:30;;;;;;;;;;;;;;;;;;5018729;28;1227;-67
2022/11/12 01:15:55;;;;;;;;;;;;;;;;;;5052857;28;1058;-67
2022/11/12 01:18:20;;;;;;;;;;;;;;;;;;5052464;28;861;-67
2022/11/12 01:20:46;;;;;;;;;;;;;;;;;;5035196;28;818;-68
2022/11/12 01:23:11;;;;;;;;;;;;;;;;;;5034667;28;1185;-68
2022/11/12 01:25:37;;;;;;;;;;;;;;;;;;5034587;28;1268;-68
2022/11/12 01:28:02;;;;;;;;;;;;;;;;;;5034628;28;1914;-68
2022/11/12 01:30:27;;;;;;;;;;;;;;;;;;5052410;28;896;-67
2022/11/12 01:32:53;;;;;;;;;;;;;;;;;;5018214;28;1288;-67
2022/11/12 01:35:18;;;;;;;;;;;;;;;;;;5034145;28;968;-67
2022/11/12 01:37:43;;;;;;;;;;;;;;;;;;5034800;28;1177;-67
2022/11/12 01:40:08;;;;;;;;;;;;;;;;;;5034264;28;909;-67
2022/11/12 01:42:34;;;;;;;;;;;;;;;;;;5018036;28;1169;-67
2022/11/12 01:44:59;;;;;;;;;;;;;;;;;;5017942;28;1185;-67
2022/11/12 01:47:28;;;;;;;;;;;;;;;;;;5051822;28;1961;-67
2022/11/12 01:49:56;;;;;;;;;;;;;;;;;;5052123;28;876;-67
2022/11/12 01:52:21;;;;;;;;;;;;;;;;;;5033925;28;1224;-67
2022/11/12 01:54:49;;;;;;;;;;;;;;;;;;5030514;28;1351;-67
2022/11/12 01:57:16;;;;;;;;;;;;;;;;;;5047530;28;1278;-67
2022/11/12 01:59:44;;;;;;;;;;;;;;;;;;5031363;28;1196;-67
2022/11/12 02:02:09;;;;;;;;;;;;;;;;;;5049352;28;920;-67
2022/11/12 02:04:37;;;;;;;;;;;;;;;;;;5032695;28;1228;-67
2022/11/12 02:07:03;;;;;;;;;;;;;;;;;;5033598;28;1890;-67
2022/11/12 02:09:29;;;;;;;;;;;;;;;;;;5033603;28;1224;-67
2022/11/12 02:11:55;;;;;;;;;;;;;;;;;;5033717;28;1201;-67
2022/11/12 02:14:20;;;;;;;;;;;;;;;;;;5051726;28;928;-68
2022/11/12 02:16:48;;;;;;;;;;;;;;;;;;5035084;28;1173;-68
2022/11/12 02:19:15;;;;;;;;;;;;;;;;;;5052315;28;949;-67
2022/11/12 02:21:40;;;;;;;;;;;;;;;;;;5018741;28;1230;-67
2022/11/12 02:24:06;;;;;;;;;;;;;;;;;;5050936;28;1231;-67
2022/11/12 02:26:35;;;;;;;;;;;;;;;;;;5064992;28;1204;-68
2022/11/12 02:29:01;;;;;;;;;;;;;;;;;;5090153;28;1905;-68
2022/11/12 02:31:26;;;;;;;;;;;;;;;;;;5085461;28;1144;-68
2022/11/12 02:33:52;;;;;;;;;;;;;;;;;;5073423;28;1381;-68
2022/11/12 02:36:17;;;;;;;;;;;;;;;;;;5055476;28;1246;-67
2022/11/12 02:38:42;;;;;;;;;;;;;;;;;;5073506;28;955;-68
2022/11/12 02:41:08;;;;;;;;;;;;;;;;;;5072747;28;1192;-67
2022/11/12 02:43:33;;;;;;;;;;;;;;;;;;5073548;28;808;-68
2022/11/12 02:45:58;;;;;;;;;;;;;;;;;;5091237;28;982;-68
2022/11/12 02:48:23;;;;;;;;;;;;;;;;;;5072770;28;1972;-68
2022/11/12 02:50:48;;;;;;;;;;;;;;;;;;5056365;28;1219;-67
2022/11/12 02:53:14;;;;;;;;;;;;;;;;;;5091222;28;942;-67
2022/11/12 02:55:39;;;;;;;;;;;;;;;;;;5071988;28;1339;-67
2022/11/12 02:58:04;;;;;;;;;;;;;;;;;;5089424;28;915;-67
2022/11/12 03:00:29;;;;;;;;;;;;;;;;;;5089124;28;1392;-67
2022/11/12 03:02:58;;;;;;;;;;;;;;;;;;5073339;28;837;-69
2022/11/12 03:05:32;;;;;;;;;;;;;;;;;;5090927;28;1190;-68
2022/11/12 03:07:58;;;;;;;;;;;;;;;;;;5072696;28;1967;-69
2022/11/12 03:10:25;;;;;;;;;;;;;;;;;;5090820;28;882;-69
2022/11/12 03:12:50;;;;;;;;;;;;;;;;;;5072921;28;1315;-70
2022/11/12 03:15:16;;;;;;;;;;;;;;;;;;5055487;28;1186;-70
2022/11/12 03:17:42;;;;;;;;;;;;;;;;;;5091376;28;900;-70
2022/11/12 03:20:08;;;;;;;;;;;;;;;;;;5055566;28;1220;-69
2022/11/12 03:22:34;;;;;;;;;;;;;;;;;;5072632;28;1239;-70
2022/11/12 03:24:59;;;;;;;;;;;;;;;;;;5050669;28;1211;-70
2022/11/12 03:27:24;;;;;;;;;;;;;;;;;;5047322;28;1985;-69
2022/11/12 03:29:49;;;;;;;;;;;;;;;;;;5014471;28;1216;-68
2022/11/12 03:32:15;;;;;;;;;;;;;;;;;;5052272;28;1198;-69
2022/11/12 03:34:40;;;;;;;;;;;;;;;;;;5052912;28;837;-68
2022/11/12 03:37:08;;;;;;;;;;;;;;;;;;5070045;28;916;-69
2022/11/12 03:39:33;;;;;;;;;;;;;;;;;;5070375;28;908;-68
2022/11/12 03:41:59;;;;;;;;;;;;;;;;;;5052605;28;1184;-68
2022/11/12 03:44:24;;;;;;;;;;;;;;;;;;5070813;28;1023;-69
2022/11/12 03:46:49;;;;;;;;;;;;;;;;;;5071076;28;846;-69
2022/11/12 03:49:15;;;;;;;;;;;;;;;;;;5034959;28;1898;-69
2022/11/12 03:51:40;;;;;;;;;;;;;;;;;;5071761;28;979;-71
2022/11/12 03:54:05;;;;;;;;;;;;;;;;;;5070383;28;864;-69
2022/11/12 03:56:30;;;;;;;;;;;;;;;;;;5070224;28;833;-69
2022/11/12 03:58:56;;;;;;;;;;;;;;;;;;5070304;28;857;-70
2022/11/12 04:01:21;;;;;;;;;;;;;;;;;;5051455;28;1179;-69
2022/11/12 04:03:46;;;;;;;;;;;;;;;;;;5070478;28;1034;-69
2022/11/12 04:08:55;;;;;;;;;;;;;;;;;;5070550;28;1983;-69
2022/11/12 04:11:21;;;;;;;;;;;;;;;;;;5070112;28;885;-69
2022/11/12 04:13:46;;;;;;;;;;;;;;;;;;5070716;28;844;-69
2022/11/12 04:21:51;;;;;;;;;;;;;;;;;;5055707;28;719;-69
2022/11/12 04:27:00;;;;;;;;;;;;;;;;;;5070219;28;1046;-69
2022/11/12 04:32:09;;;;;;;;;;;;;;;;;;5055229;28;648;-69
2022/11/12 04:34:35;;;;;;;;;;;;;;;;;;5052678;28;1091;-69
2022/11/12 04:37:01;;;;;;;;;;;;;;;;;;5070664;28;813;-69
2022/11/12 04:39:26;;;;;;;;;;;;;;;;;;5070104;28;1054;-69
2022/11/12 04:47:20;;;;;;;;;;;;;;;;;;5069922;28;1930;-69
2022/11/12 04:49:45;;;;;;;;;;;;;;;;;;5070032;28;956;-70
2022/11/12 04:52:10;;;;;;;;;;;;;;;;;;5051420;28;1329;-69
2022/11/12 04:54:35;;;;;;;;;;;;;;;;;;5051687;28;1188;-69
2022/11/12 04:57:01;;;;;;;;;;;;;;;;;;5034785;28;1183;-69
2022/11/12 04:59:26;;;;;;;;;;;;;;;;;;5067812;28;1328;-69
2022/11/12 05:01:51;;;;;;;;;;;;;;;;;;5073063;28;884;-70
2022/11/12 05:04:17;;;;;;;;;;;;;;;;;;5072636;28;879;-70
2022/11/12 05:06:51;;;;;;;;;;;;;;;;;;5073443;28;876;-70
2022/11/12 05:09:17;;;;;;;;;;;;;;;;;;5055776;28;1959;-69
2022/11/12 05:11:42;;;;;;;;;;;;;;;;;;5073301;28;888;-70
2022/11/12 05:14:07;;;;;;;;;;;;;;;;;;5055095;28;1237;-70
2022/11/12 05:16:33;;;;;;;;;;;;;;;;;;5038507;28;1153;-69
2022/11/12 05:18:58;;;;;;;;;;;;;;;;;;5056136;28;1264;-69
2022/11/12 05:24:07;;;;;;;;;;;;;;;;;;5058421;28;917;-69
2022/11/12 05:26:32;;;;;;;;;;;;;;;;;;5073538;28;1168;-69
2022/11/12 05:28:57;;;;;;;;;;;;;;;;;;5072803;28;1906;-69
2022/11/12 05:31:23;;;;;;;;;;;;;;;;;;5071907;28;920;-69
2022/11/12 05:33:48;;;;;;;;;;;;;;;;;;5055185;28;1048;-69
2022/11/12 05:36:13;;;;;;;;;;;;;;;;;;5053949;28;909;-69
2022/11/12 05:38:39;;;;;;;;;;;;;;;;;;5073007;28;805;-70
2022/11/12 05:41:04;;;;;;;;;;;;;;;;;;5072660;28;884;-69
2022/11/12 05:43:29;;;;;;;;;;;;;;;;;;5071718;28;1099;-69
2022/11/12 05:45:55;;;;;;;;;;;;;;;;;;5054328;28;833;-71
2022/11/12 05:48:20;;;;;;;;;;;;;;;;;;5072145;28;1870;-70
2022/11/12 05:50:49;;;;;;;;;;;;;;;;;;5072378;28;829;-69
2022/11/12 05:53:14;;;;;;;;;;;;;;;;;;5053535;28;884;-69
2022/11/12 05:55:39;;;;;;;;;;;;;;;;;;5072440;28;920;-68
2022/11/12 05:58:05;;;;;;;;;;;;;;;;;;5072609;28;984;-69
2022/11/12 06:00:30;;;;;;;;;;;;;;;;;;5053709;28;1156;-70
2022/11/12 06:02:56;;;;;;;;;;;;;;;;;;5072046;28;892;-70
2022/11/12 06:05:22;;;;;;;;;;;;;;;;;;5053465;28;1188;-70
2022/11/12 06:07:47;;;;;;;;;;;;;;;;;;5072691;28;1965;-71
2022/11/12 06:10:12;;;;;;;;;;;;;;;;;;5053877;28;1222;-71
2022/11/12 06:12:38;;;;;;;;;;;;;;;;;;5053282;28;1274;-69
2022/11/12 06:15:03;;;;;;;;;;;;;;;;;;5054188;28;1302;-68
2022/11/12 06:17:28;;;;;;;;;;;;;;;;;;5053888;28;948;-68
2022/11/12 06:19:53;;;;;;;;;;;;;;;;;;5071841;28;999;-68
2022/11/12 06:22:19;;;;;;;;;;;;;;;;;;5070182;28;1162;-68
2022/11/12 06:24:44;;;;;;;;;;;;;;;;;;5072399;28;1100;-68
2022/11/12 06:27:09;;;;;;;;;;;;;;;;;;5065041;28;1969;-68
2022/11/12 06:29:34;;;;;;;;;;;;;;;;;;5070594;28;1165;-69
2022/11/12 06:32:00;;;;;;;;;;;;;;;;;;5079341;28;1124;-68
2022/11/12 06:34:25;;;;;;;;;;;;;;;;;;5040682;28;1220;-68
2022/11/12 06:36:50;;;;;;;;;;;;;;;;;;5016753;28;1298;-68
2022/11/12 06:39:16;;;;;;;;;;;;;;;;;;5033188;28;1327;-68
2022/11/12 06:41:41;;;;;;;;;;;;;;;;;;5051770;28;821;-68
2022/11/12 06:44:06;;;;;;;;;;;;;;;;;;5051919;28;869;-69
2022/11/12 06:46:31;;;;;;;;;;;;;;;;;;5051992;28;991;-67
2022/11/12 06:48:56;;;;;;;;;;;;;;;;;;5034382;28;1953;-67
2022/11/12 06:51:22;;;;;;;;;;;;;;;;;;5051283;28;916;-67
2022/11/12 06:53:47;;;;;;;;;;;;;;;;;;5034096;28;1000;-67
2022/11/12 06:56:13;;;;;;;;;;;;;;;;;;5016693;28;1208;-67
2022/11/12 06:58:38;;;;;;;;;;;;;;;;;;5051333;28;817;-68
2022/11/12 07:01:05;;;;;;;;;;;;;;;;;;5033427;28;1191;-68
2022/11/12 07:03:30;;;;;;;;;;;;;;;;;;5050214;28;975;-68
2022/11/12 07:05:55;;;;;;;;;;;;;;;;;;5033042;28;1112;-68
2022/11/12 07:08:21;;;;;;;;;;;;;;;;;;5050151;28;1902;-68
2022/11/12 07:10:46;;;;;;;;;;;;;;;;;;5016652;28;1408;-67
2022/11/12 07:13:11;;;;;;;;;;;;;;;;;;5050458;28;1042;-67
2022/11/12 07:15:37;;;;;;;;;;;;;;;;;;5033052;28;1039;-67
2022/11/12 07:18:02;;;;;;;;;;;;;;;;;;5050692;28;844;-68
2022/11/12 07:20:27;;;;;;;;;;;;;;;;;;5031873;28;900;-68
2022/11/12 07:22:52;;;;;;;;;;;;;;;;;;5050588;28;930;-67
2022/11/12 07:25:18;;;;;;;;;;;;;;;;;;5038041;28;1192;-68
2022/11/12 07:27:43;;;;;;;;;;;;;;;;;;5082072;28;1914;-68
2022/11/12 07:30:09;;;;;;;;;;;;;;;;;;5076739;28;1175;-68
2022/11/12 07:32:34;;;;;;;;;;;;;;;;;;5069571;28;1120;-68
2022/11/12 07:34:59;;;;;;;;;;;;;;;;;;5089080;28;1251;-68
2022/11/12 07:37:24;;;;;;;;;;;;;;;;;;5053380;28;1243;-67
2022/11/12 07:39:50;;;;;;;;;;;;;;;;;;5090346;28;995;-68
2022/11/12 07:42:15;;;;;;;;;;;;;;;;;;5071701;28;892;-69
2022/11/12 07:44:40;;;;;;;;;;;;;;;;;;5090041;28;978;-69
2022/11/12 07:47:05;;;;;;;;;;;;;;;;;;5072094;28;999;-69
2022/11/12 07:49:31;;;;;;;;;;;;;;;;;;5071629;28;1971;-69
2022/11/12 07:51:56;;;;;;;;;;;;;;;;;;5055255;28;1235;-69
2022/11/12 07:54:21;;;;;;;;;;;;;;;;;;5089607;28;872;-69
2022/11/12 07:56:47;;;;;;;;;;;;;;;;;;5054955;28;1354;-69
2022/11/12 07:59:12;;;;;;;;;;;;;;;;;;5089991;28;860;-69
2022/11/12 08:01:38;;;;;;;;;;;;;;;;;;5055309;28;1423;-69
2022/11/12 08:04:06;;;;;;;;;;;;;;;;;;5090091;28;915;-69
2022/11/12 08:06:32;;;;;;;;;;;;;;;;;;5071112;28;1279;-69
2022/11/12 08:09:01;;;;;;;;;;;;;;;;;;5089970;28;1972;-69
2022/11/12 08:11:27;;;;;;;;;;;;;;;;;;5071544;28;1235;-69
2022/11/12 08:13:52;;;;;;;;;;;;;;;;;;5072273;28;789;-69
2022/11/12 08:16:17;;;;;;;;;;;;;;;;;;5090460;28;817;-69
2022/11/12 08:18:43;;;;;;;;;;;;;;;;;;5055022;28;1148;-69
2022/11/12 08:21:10;;;;;;;;;;;;;;;;;;5072555;28;1236;-69
2022/11/12 08:23:35;;;;;;;;;;;;;;;;;;5089763;28;1044;-68
2022/11/12 08:26:02;;;;;;;;;;;;;;;;;;5072253;28;1102;-68
2022/11/12 08:28:28;;;;;;;;;;;;;;;;;;5071637;28;1902;-68
2022/11/12 08:30:55;;;;;;;;;;;;;;;;;;5071949;28;1438;-67
2022/11/12 08:33:20;;;;;;;;;;;;;;;;;;5089911;28;868;-67
2022/11/12 08:35:46;;;;;;;;;;;;;;;;;;5093618;28;995;-67
2022/11/12 08:38:12;;;;;;;;;;;;;;;;;;5094578;28;888;-67
2022/11/12 08:40:38;;;;;;;;;;;;;;;;;;5060115;28;1275;-67
2022/11/12 08:43:05;;;;;;;;;;;;;;;;;;5094897;28;849;-67
2022/11/12 08:45:32;;;;;;;;;;;;;;;;;;5094013;28;1051;-67
2022/11/12 08:48:04;;;;;;;;;;;;;;;;;;5094175;28;1948;-67
2022/11/12 08:50:30;;;;;;;;;;;;;;;;;;5094005;28;825;-68
2022/11/12 08:52:59;;;;;;;;;;;;;;;;;;5075374;28;1268;-68
2022/11/12 08:55:24;;;;;;;;;;;;;;;;;;5091848;28;903;-67
2022/11/12 08:57:50;;;;;;;;;;;;;;;;;;5057643;28;1195;-67
2022/11/12 09:00:15;;;;;;;;;;;;;;;;;;5074906;28;935;-67
2022/11/12 09:02:40;;;;;;;;;;;;;;;;;;5074665;28;1365;-67
2022/11/12 09:05:06;;;;;;;;;;;;;;;;;;5093062;28;848;-67
2022/11/12 09:07:31;;;;;;;;;;;;;;;;;;5074428;28;1942;-67
2022/11/12 09:09:57;;;;;;;;;;;;;;;;;;5092916;28;884;-66
2022/11/12 09:12:22;;;;;;;;;;;;;;;;;;5092304;28;852;-67
2022/11/12 09:14:47;;;;;;;;;;;;;;;;;;5092483;28;880;-68
2022/11/12 09:17:13;;;;;;;;;;;;;;;;;;5093107;28;836;-66
2022/11/12 09:19:38;;;;;;;;;;;;;;;;;;5091992;28;944;-66
2022/11/12 09:22:04;;;;;;;;;;;;;;;;;;5074780;28;829;-66
2022/11/12 09:24:29;;;;;;;;;;;;;;;;;;5092150;28;977;-66
2022/11/12 09:26:54;;;;;;;;;;;;;;;;;;5074131;28;1190;-66
2022/11/12 09:29:19;;;;;;;;;;;;;;;;;;5073809;28;1988;-66
2022/11/12 09:31:45;;;;;;;;;;;;;;;;;;5092185;28;983;-66
2022/11/12 09:34:10;;;;;;;;;;;;;;;;;;5092613;28;860;-66
2022/11/12 09:36:35;;;;;;;;;;;;;;;;;;5073774;28;892;-66
2022/11/12 09:39:01;;;;;;;;;;;;;;;;;;5073893;28;916;-66
2022/11/12 09:41:36;;;;;;;;;;;;;;;;;;5073546;28;1426;-66
2022/11/12 09:44:13;;;;;;;;;;;;;;;;;;5073959;28;1301;-66
2022/11/12 09:46:38;;;;;;;;;;;;;;;;;;5090193;28;888;-66
2022/11/12 09:49:04;;;;;;;;;;;;;;;;;;5092164;28;1930;-66
2022/11/12 09:51:31;;;;;;;;;;;;;;;;;;5091475;28;885;-66
2022/11/12 09:53:57;;;;;;;;;;;;;;;;;;5092040;28;887;-67
2022/11/12 09:56:23;;;;;;;;;;;;;;;;;;5091777;28;837;-67
2022/11/12 09:58:49;;;;;;;;;;;;;;;;;;5073393;28;1188;-67
2022/11/12 10:01:18;;;;;;;;;;;;;;;;;;5074126;28;1351;-67
2022/11/12 10:04:09;;;;;;;;;;;;;;;;;;5073211;28;1219;-67
2022/11/12 10:06:41;;;;;;;;;;;;;;;;;;5042856;28;1174;-67
2022/11/12 10:09:19;;;;;;;;;;;;;;;;;;5092415;28;1901;-67
2022/11/12 10:12:32;;;;;;;;;;;;;;;;;;5074054;28;1014;-67
2022/11/12 10:17:59;;;;;;;;;;;;;;;;;;5009753;28;736;-67
2022/11/12 10:20:29;;;;;;;;;;;;;;;;;;5072379;28;1144;-67
2022/11/12 10:23:05;;;;;;;;;;;;;;;;;;5073134;28;1064;-67
2022/11/12 10:25:31;;;;;;;;;;;;;;;;;;5089948;28;1202;-67
2022/11/12 10:27:56;;;;;;;;;;;;;;;;;;5072946;28;1886;-67
2022/11/12 10:30:23;;;;;;;;;;;;;;;;;;5072904;28;884;-67
2022/11/12 10:32:49;;;;;;;;;;;;;;;;;;5092016;28;861;-68
2022/11/12 10:35:21;;;;;;;;;;;;;;;;;;5074305;28;1254;-68
2022/11/12 10:37:50;;;;;;;;;;;;;;;;;;5092247;28;1018;-67
2022/11/12 10:40:42;;;;;;;;;;;;;;;;;;5074243;28;1187;-67
2022/11/12 10:43:13;;;;;;;;;;;;;;;;;;5069949;28;1340;-67
2022/11/12 10:45:39;;;;;;;;;;;;;;;;;;5073330;28;1237;-67
2022/11/12 10:48:04;;;;;;;;;;;;;;;;;;5091804;28;1966;-67
2022/11/12 10:50:40;;;;;;;;;;;;;;;;;;5071730;28;1415;-67
2022/11/12 10:53:06;;;;;;;;;;;;;;;;;;5072192;28;1235;-67
2022/11/12 10:55:33;;;;;;;;;;;;;;;;;;5088691;28;1191;-67
2022/11/12 10:58:19;;;;;;;;;;;;;;;;;;5090357;28;853;-67
2022/11/12 11:00:53;;;;;;;;;;;;;;;;;;5071515;28;1292;-66
2022/11/12 11:03:23;;;;;;;;;;;;;;;;;;5072446;28;1345;-67
2022/11/12 11:05:54;;;;;;;;;;;;;;;;;;5089304;28;1299;-67
2022/11/12 11:08:35;;;;;;;;;;;;;;;;;;5090741;28;1964;-67
2022/11/12 11:11:16;;;;;;;;;;;;;;;;;;5090511;28;833;-67
2022/11/12 11:13:42;;;;;;;;;;;;;;;;;;5090402;28;931;-67
2022/11/12 11:16:11;;;;;;;;;;;;;;;;;;5072457;28;1186;-67
2022/11/12 11:18:36;;;;;;;;;;;;;;;;;;5071644;28;1154;-67
2022/11/12 11:21:10;;;;;;;;;;;;;;;;;;5089915;28;884;-66
2022/11/12 11:23:48;;;;;;;;;;;;;;;;;;5088350;28;1130;-67
2022/11/12 11:26:26;;;;;;;;;;;;;;;;;;5072203;28;1203;-67
2022/11/12 11:29:11;;;;;;;;;;;;;;;;;;5089925;28;1901;-67
2022/11/12 11:31:43;;;;;;;;;;;;;;;;;;5030961;28;1307;-67
2022/11/12 11:34:27;;;;;;;;;;;;;;;;;;5071969;28;1307;-67
2022/11/12 11:37:11;;;;;;;;;;;;;;;;;;5090757;28;908;-67
2022/11/12 11:39:48;;;;;;;;;;;;;;;;;;5090007;28;857;-67
2022/11/12 11:42:29;;;;;;;;;;;;;;;;;;5089560;28;1238;-67
2022/11/12 11:45:14;;;;;;;;;;;;;;;;;;5090138;28;801;-67
2022/11/12 11:47:42;;;;;;;;;;;;;;;;;;5071563;28;1914;-67
2022/11/12 11:50:21;;;;;;;;;;;;;;;;;;5090456;28;887;-67
2022/11/12 11:53:06;;;;;;;;;;;;;;;;;;5072165;28;1131;-67
2022/11/12 11:55:51;;;;;;;;;;;;;;;;;;5075724;28;1186;-67
2022/11/12 11:58:35;;;;;;;;;;;;;;;;;;5090854;28;928;-67
2022/11/12 12:01:12;;;;;;;;;;;;;;;;;;5072021;28;1275;-67
2022/11/12 12:03:41;;;;;;;;;;;;;;;;;;5090322;28;872;-67
2022/11/12 12:06:26;;;;;;;;;;;;;;;;;;5090774;28;853;-67
2022/11/12 12:08:51;;;;;;;;;;;;;;;;;;5072736;28;1946;-67
2022/11/12 12:11:17;;;;;;;;;;;;;;;;;;5094460;28;1002;-67
2022/11/12 12:13:57;;;;;;;;;;;;;;;;;;5076403;28;1333;-67
2022/11/12 12:16:38;;;;;;;;;;;;;;;;;;5075952;28;1330;-67
2022/11/12 12:19:15;;;;;;;;;;;;;;;;;;5076194;28;1207;-67
2022/11/12 12:21:45;;;;;;;;;;;;;;;;;;5093464;28;880;-66
2022/11/12 12:24:23;;;;;;;;;;;;;;;;;;5093621;28;983;-67
2022/11/12 12:27:10;;;;;;;;;;;;;;;;;;5075104;28;1215;-67
2022/11/12 12:29:41;;;;;;;;;;;;;;;;;;5093144;28;1977;-67
2022/11/12 12:32:19;;;;;;;;;;;;;;;;;;5075037;28;1346;-67
2022/11/12 12:34:46;;;;;;;;;;;;;;;;;;5093280;28;920;-67
2022/11/12 12:37:35;;;;;;;;;;;;;;;;;;5075232;28;1247;-67
2022/11/12 12:40:04;;;;;;;;;;;;;;;;;;5054374;28;1212;-67
2022/11/12 12:42:32;;;;;;;;;;;;;;;;;;5092952;28;793;-67
2022/11/12 12:45:03;;;;;;;;;;;;;;;;;;5074644;28;1033;-67
2022/11/12 12:47:31;;;;;;;;;;;;;;;;;;5092530;28;1901;-67
2022/11/12 12:49:57;;;;;;;;;;;;;;;;;;5093278;28;837;-67
2022/11/12 12:52:22;;;;;;;;;;;;;;;;;;5092857;28;920;-67
2022/11/12 12:54:50;;;;;;;;;;;;;;;;;;5075000;28;999;-67
2022/11/12 12:57:28;;;;;;;;;;;;;;;;;;5074589;28;1215;-67
2022/11/12 13:00:12;;;;;;;;;;;;;;;;;;5093378;28;841;-67
2022/11/12 13:02:37;;;;;;;;;;;;;;;;;;5074474;28;1268;-67
2022/11/12 13:05:03;;;;;;;;;;;;;;;;;;5093055;28;887;-67
2022/11/12 13:07:43;;;;;;;;;;;;;;;;;;5092475;28;1910;-67
2022/11/12 13:10:27;;;;;;;;;;;;;;;;;;5093092;28;896;-67
2022/11/12 13:13:13;;;;;;;;;;;;;;;;;;5092757;28;837;-67
2022/11/12 13:15:46;;;;;;;;;;;;;;;;;;5060333;28;1168;-67
2022/11/12 13:18:31;;;;;;;;;;;;;;;;;;5092699;28;829;-67
2022/11/12 13:21:07;;;;;;;;;;;;;;;;;;5092525;28;1073;-67
2022/11/12 13:24:06;;;;;;;;;;;;;;;;;;5073988;28;1192;-67
2022/11/12 13:26:38;;;;;;;;;;;;;;;;;;5074789;28;1120;-67
2022/11/12 13:29:20;;;;;;;;;;;;;;;;;;5093642;28;1902;-67
2022/11/12 13:31:46;;;;;;;;;;;;;;;;;;5075552;28;1460;-67
2022/11/12 13:34:13;;;;;;;;;;;;;;;;;;5093985;28;991;-67
2022/11/12 13:36:39;;;;;;;;;;;;;;;;;;5093666;28;888;-67
2022/11/12 13:39:11;;;;;;;;;;;;;;;;;;5075191;28;840;-67
2022/11/12 13:44:21;;;;;;;;;;;;;;;;;;5092630;28;682;-67
2022/11/12 13:46:49;;;;;;;;;;;;;;;;;;5074093;28;1570;-67
2022/11/12 13:49:15;;;;;;;;;;;;;;;;;;5092195;28;1981;-67
2022/11/12 13:51:50;;;;;;;;;;;;;;;;;;5091767;28;813;-67
2022/11/12 13:54:25;;;;;;;;;;;;;;;;;;5073707;28;1299;-67
2022/11/12 13:56:50;;;;;;;;;;;;;;;;;;5092238;28;884;-67
2022/11/12 13:59:17;;;;;;;;;;;;;;;;;;5073764;28;837;-67
2022/11/12 14:01:42;;;;;;;;;;;;;;;;;;5073473;28;1178;-66
2022/11/12 14:04:16;;;;;;;;;;;;;;;;;;5057297;28;1229;-67
2022/11/12 14:06:45;;;;;;;;;;;;;;;;;;5073398;28;1086;-67
2022/11/12 14:09:19;;;;;;;;;;;;;;;;;;5091565;28;1902;-67
2022/11/12 14:11:51;;;;;;;;;;;;;;;;;;5091047;28;929;-67
2022/11/12 14:14:16;;;;;;;;;;;;;;;;;;5073436;28;1198;-67
2022/11/12 14:16:41;;;;;;;;;;;;;;;;;;5091324;28;1054;-67
2022/11/12 14:19:09;;;;;;;;;;;;;;;;;;5073563;28;1193;-66
2022/11/12 14:21:35;;;;;;;;;;;;;;;;;;5090680;28;1030;-66
2022/11/12 14:24:01;;;;;;;;;;;;;;;;;;5090030;28;1286;-67
2022/11/12 14:26:37;;;;;;;;;;;;;;;;;;5090700;28;955;-66
2022/11/12 14:29:02;;;;;;;;;;;;;;;;;;5091164;28;1914;-66
2022/11/12 14:31:28;;;;;;;;;;;;;;;;;;5090499;28;904;-67
2022/11/12 14:33:53;;;;;;;;;;;;;;;;;;5055545;28;1267;-67
2022/11/12 14:36:19;;;;;;;;;;;;;;;;;;5072647;28;1232;-66
2022/11/12 14:38:44;;;;;;;;;;;;;;;;;;5089323;28;1198;-66
2022/11/12 14:41:14;;;;;;;;;;;;;;;;;;5072940;28;1487;-66
2022/11/12 14:43:47;;;;;;;;;;;;;;;;;;5072433;28;1196;-66
2022/11/12 14:46:22;;;;;;;;;;;;;;;;;;5091109;28;655;-66
2022/11/12 14:48:50;;;;;;;;;;;;;;;;;;5091868;28;1959;-67
2022/11/12 14:51:15;;;;;;;;;;;;;;;;;;5073271;28;1413;-66
2022/11/12 14:53:42;;;;;;;;;;;;;;;;;;5092058;28;865;-67
2022/11/12 14:56:11;;;;;;;;;;;;;;;;;;5092324;28;936;-67
2022/11/12 14:58:38;;;;;;;;;;;;;;;;;;5072960;28;1357;-66
2022/11/12 15:01:22;;;;;;;;;;;;;;;;;;5073391;28;1298;-66
2022/11/12 15:03:47;;;;;;;;;;;;;;;;;;5091078;28;928;-67
2022/11/12 15:06:14;;;;;;;;;;;;;;;;;;5072689;28;1010;-66
2022/11/12 15:08:40;;;;;;;;;;;;;;;;;;5090254;28;1891;-67
2022/11/12 15:11:17;;;;;;;;;;;;;;;;;;5072800;28;818;-66
2022/11/12 15:13:43;;;;;;;;;;;;;;;;;;5090011;28;837;-66
2022/11/12 15:16:10;;;;;;;;;;;;;;;;;;5091087;28;892;-67
2022/11/12 15:18:37;;;;;;;;;;;;;;;;;;5090091;28;974;-66
2022/11/12 15:21:28;;;;;;;;;;;;;;;;;;5072560;28;1226;-67
2022/11/12 15:23:56;;;;;;;;;;;;;;;;;;5087015;28;1227;-67
2022/11/12 15:26:23;;;;;;;;;;;;;;;;;;5090233;28;903;-66
2022/11/12 15:28:59;;;;;;;;;;;;;;;;;;5090226;28;1906;-67
2022/11/12 15:31:24;;;;;;;;;;;;;;;;;;5071825;28;1147;-67
2022/11/12 15:33:50;;;;;;;;;;;;;;;;;;5072163;28;846;-67
2022/11/12 15:36:17;;;;;;;;;;;;;;;;;;5090418;28;891;-67
2022/11/12 15:38:46;;;;;;;;;;;;;;;;;;5071537;28;1237;-67
2022/11/12 15:41:23;;;;;;;;;;;;;;;;;;5072091;28;1239;-67
2022/11/12 15:43:49;;;;;;;;;;;;;;;;;;5089152;28;1160;-67
2022/11/12 15:46:14;;;;;;;;;;;;;;;;;;5090231;28;765;-67
2022/11/12 15:48:39;;;;;;;;;;;;;;;;;;5071706;28;1898;-67
2022/11/12 15:51:07;;;;;;;;;;;;;;;;;;5071960;28;1171;-67
2022/11/12 15:53:32;;;;;;;;;;;;;;;;;;5089441;28;951;-67
2022/11/12 15:55:58;;;;;;;;;;;;;;;;;;5090233;28;932;-67
2022/11/12 15:58:28;;;;;;;;;;;;;;;;;;5089765;28;812;-67
2022/11/12 16:00:54;;;;;;;;;;;;;;;;;;5090084;28;1060;-67
2022/11/12 16:03:20;;;;;;;;;;;;;;;;;;5090107;28;797;-67
2022/11/12 16:05:45;;;;;;;;;;;;;;;;;;5089720;28;836;-67
2022/11/12 16:08:11;;;;;;;;;;;;;;;;;;5090185;28;1905;-67
2022/11/12 16:10:38;;;;;;;;;;;;;;;;;;5071086;28;1136;-67
2022/11/12 16:13:04;;;;;;;;;;;;;;;;;;5090022;28;991;-67
2022/11/12 16:15:29;;;;;;;;;;;;;;;;;;5070840;28;868;-67
2022/11/12 16:17:54;;;;;;;;;;;;;;;;;;5090127;28;833;-67
2022/11/12 16:20:22;;;;;;;;;;;;;;;;;;5090098;28;876;-67
2022/11/12 16:22:47;;;;;;;;;;;;;;;;;;5089339;28;896;-67
2022/11/12 16:25:12;;;;;;;;;;;;;;;;;;5089352;28;1207;-67
2022/11/12 16:27:38;;;;;;;;;;;;;;;;;;5071435;28;1902;-67
2022/11/12 16:30:06;;;;;;;;;;;;;;;;;;5073033;28;1203;-67
2022/11/12 16:32:31;;;;;;;;;;;;;;;;;;5072305;28;1239;-67
2022/11/12 16:34:56;;;;;;;;;;;;;;;;;;5055767;28;1298;-67
2022/11/12 16:37:21;;;;;;;;;;;;;;;;;;5089969;28;963;-67
2022/11/12 16:39:47;;;;;;;;;;;;;;;;;;5070861;28;955;-66
2022/11/12 16:42:12;;;;;;;;;;;;;;;;;;5071658;28;1155;-66
2022/11/12 16:44:37;;;;;;;;;;;;;;;;;;5054225;28;1507;-66
2022/11/12 16:47:04;;;;;;;;;;;;;;;;;;5054651;28;1275;-67
2022/11/12 16:49:29;;;;;;;;;;;;;;;;;;5088849;28;1918;-66
2022/11/12 16:51:55;;;;;;;;;;;;;;;;;;5055722;28;1203;-66
2022/11/12 16:54:20;;;;;;;;;;;;;;;;;;5090056;28;875;-67
2022/11/12 16:56:45;;;;;;;;;;;;;;;;;;5072923;28;1210;-66
2022/11/12 16:59:13;;;;;;;;;;;;;;;;;;5093633;28;912;-66
2022/11/12 17:01:39;;;;;;;;;;;;;;;;;;5058182;28;1212;-67
2022/11/12 17:04:04;;;;;;;;;;;;;;;;;;5075166;28;1149;-66
2022/11/12 17:06:36;;;;;;;;;;;;;;;;;;5092675;28;888;-66
2022/11/12 17:09:02;;;;;;;;;;;;;;;;;;5058234;28;1902;-66
2022/11/12 17:11:28;;;;;;;;;;;;;;;;;;5092371;28;963;-66
2022/11/12 17:13:53;;;;;;;;;;;;;;;;;;5093150;28;900;-67
2022/11/12 17:16:18;;;;;;;;;;;;;;;;;;5093130;28;833;-66
2022/11/12 17:18:43;;;;;;;;;;;;;;;;;;5074249;28;817;-65
2022/11/12 17:21:13;;;;;;;;;;;;;;;;;;5075899;28;884;-66
2022/11/12 17:23:39;;;;;;;;;;;;;;;;;;5074481;28;1297;-66
2022/11/12 17:26:05;;;;;;;;;;;;;;;;;;5075915;28;1259;-66
2022/11/12 17:28:30;;;;;;;;;;;;;;;;;;5074304;28;1981;-66
2022/11/12 17:31:25;;;;;;;;;;;;;;;;;;5093584;28;801;-66
2022/11/12 17:33:51;;;;;;;;;;;;;;;;;;5057345;28;1284;-66
2022/11/12 17:36:23;;;;;;;;;;;;;;;;;;5058844;28;1267;-66
2022/11/12 17:38:52;;;;;;;;;;;;;;;;;;5074304;28;1231;-66
2022/11/12 17:41:18;;;;;;;;;;;;;;;;;;5075039;28;1148;-66
2022/11/12 17:43:43;;;;;;;;;;;;;;;;;;5057603;28;1198;-66